Larochette, Luxembourg
Current Conditions -  °F | °C
As of 3:50 PM on Wednesday 26 Nov 2014 (Local Time) from ELLX Reporting Station
Haze Haze  
Wind Chill: 38°   Ceiling: 500
Heat Index: 41°   Visibility: 1.8mi
Dew Point: 39°   Wind: 5mph
Humidity: 93%   Direction: 90°E
Pressure: 29.88"   Gusts: NA
Location:  49.78°N, 6.22°E
Report Text: ELLX 261450Z 09004KT 050V130 3000 BR BKN005 05/04 Q1012 NOSIG
Loading
Personal Weather Stations






























Interactive Weather Map New forecast layout! Learn more

10-Day Weather Forecast

Advertisements
Track Severe Weather on mobile